sensor_id;sensor_type;location;lat;lon;timestamp;P1;durP1;ratioP1;P2;durP2;ratioP2
40501;SDS011;29631;49.168;9.848;2022-07-06T00:01:50;1.58;;;1.58;;
40501;SDS011;29631;49.168;9.848;2022-07-06T00:04:17;1.45;;;1.35;;
40501;SDS011;29631;49.168;9.848;2022-07-06T00:06:43;4.10;;;1.80;;
40501;SDS011;29631;49.168;9.848;2022-07-06T00:09:09;1.40;;;1.40;;
40501;SDS011;29631;49.168;9.848;2022-07-06T00:11:35;1.48;;;1.48;;
40501;SDS011;29631;49.168;9.848;2022-07-06T00:14:01;1.83;;;1.63;;
40501;SDS011;29631;49.168;9.848;2022-07-06T00:16:27;1.80;;;1.70;;
40501;SDS011;29631;49.168;9.848;2022-07-06T00:18:53;1.38;;;1.38;;
40501;SDS011;29631;49.168;9.848;2022-07-06T00:21:19;1.60;;;1.58;;
40501;SDS011;29631;49.168;9.848;2022-07-06T00:23:45;1.80;;;1.70;;
40501;SDS011;29631;49.168;9.848;2022-07-06T00:26:10;1.70;;;1.60;;
40501;SDS011;29631;49.168;9.848;2022-07-06T00:28:36;1.73;;;1.70;;
40501;SDS011;29631;49.168;9.848;2022-07-06T00:31:02;1.83;;;1.60;;
40501;SDS011;29631;49.168;9.848;2022-07-06T00:33:28;1.60;;;1.50;;
40501;SDS011;29631;49.168;9.848;2022-07-06T00:35:53;1.45;;;1.45;;
40501;SDS011;29631;49.168;9.848;2022-07-06T00:38:20;2.25;;;1.60;;
40501;SDS011;29631;49.168;9.848;2022-07-06T00:40:46;1.70;;;1.60;;
40501;SDS011;29631;49.168;9.848;2022-07-06T00:43:12;1.75;;;1.75;;
40501;SDS011;29631;49.168;9.848;2022-07-06T00:45:37;1.65;;;1.55;;
40501;SDS011;29631;49.168;9.848;2022-07-06T00:48:03;1.52;;;1.52;;
40501;SDS011;29631;49.168;9.848;2022-07-06T00:50:29;1.58;;;1.50;;
40501;SDS011;29631;49.168;9.848;2022-07-06T00:52:56;1.85;;;1.75;;
40501;SDS011;29631;49.168;9.848;2022-07-06T00:55:32;2.00;;;1.90;;
40501;SDS011;29631;49.168;9.848;2022-07-06T00:58:04;1.40;;;1.40;;
40501;SDS011;29631;49.168;9.848;2022-07-06T01:00:31;1.77;;;1.67;;
40501;SDS011;29631;49.168;9.848;2022-07-06T01:02:58;1.50;;;1.45;;
40501;SDS011;29631;49.168;9.848;2022-07-06T01:05:24;1.67;;;1.42;;
40501;SDS011;29631;49.168;9.848;2022-07-06T01:07:50;1.98;;;1.88;;
40501;SDS011;29631;49.168;9.848;2022-07-06T01:10:18;2.38;;;1.60;;
40501;SDS011;29631;49.168;9.848;2022-07-06T01:12:46;1.70;;;1.60;;
40501;SDS011;29631;49.168;9.848;2022-07-06T01:15:14;1.63;;;1.60;;
40501;SDS011;29631;49.168;9.848;2022-07-06T01:17:45;1.83;;;1.73;;
40501;SDS011;29631;49.168;9.848;2022-07-06T01:20:12;1.60;;;1.60;;
40501;SDS011;29631;49.168;9.848;2022-07-06T01:22:46;1.60;;;1.60;;
40501;SDS011;29631;49.168;9.848;2022-07-06T01:25:14;2.97;;;1.95;;
40501;SDS011;29631;49.168;9.848;2022-07-06T01:27:41;1.73;;;1.63;;
40501;SDS011;29631;49.168;9.848;2022-07-06T01:30:11;1.80;;;1.70;;
40501;SDS011;29631;49.168;9.848;2022-07-06T01:32:40;1.70;;;1.63;;
40501;SDS011;29631;49.168;9.848;2022-07-06T01:35:08;2.42;;;1.50;;
40501;SDS011;29631;49.168;9.848;2022-07-06T01:37:39;1.63;;;1.52;;
40501;SDS011;29631;49.168;9.848;2022-07-06T01:40:06;1.50;;;1.50;;
40501;SDS011;29631;49.168;9.848;2022-07-06T01:42:34;1.67;;;1.67;;
40501;SDS011;29631;49.168;9.848;2022-07-06T01:45:00;1.75;;;1.70;;
40501;SDS011;29631;49.168;9.848;2022-07-06T01:47:28;2.03;;;1.60;;
40501;SDS011;29631;49.168;9.848;2022-07-06T01:49:55;1.88;;;1.77;;
40501;SDS011;29631;49.168;9.848;2022-07-06T01:52:24;1.95;;;1.52;;
40501;SDS011;29631;49.168;9.848;2022-07-06T01:54:50;1.60;;;1.60;;
40501;SDS011;29631;49.168;9.848;2022-07-06T01:57:16;2.00;;;1.90;;
40501;SDS011;29631;49.168;9.848;2022-07-06T01:59:42;1.95;;;1.60;;
40501;SDS011;29631;49.168;9.848;2022-07-06T02:02:07;1.50;;;1.50;;
40501;SDS011;29631;49.168;9.848;2022-07-06T02:04:33;2.10;;;1.90;;
40501;SDS011;29631;49.168;9.848;2022-07-06T02:06:59;1.50;;;1.50;;
40501;SDS011;29631;49.168;9.848;2022-07-06T02:09:26;1.70;;;1.60;;
40501;SDS011;29631;49.168;9.848;2022-07-06T02:11:51;1.83;;;1.83;;
40501;SDS011;29631;49.168;9.848;2022-07-06T02:14:17;2.40;;;1.77;;
40501;SDS011;29631;49.168;9.848;2022-07-06T02:16:43;1.85;;;1.85;;
40501;SDS011;29631;49.168;9.848;2022-07-06T02:19:09;1.95;;;1.85;;
40501;SDS011;29631;49.168;9.848;2022-07-06T02:21:34;1.67;;;1.67;;
40501;SDS011;29631;49.168;9.848;2022-07-06T02:24:00;1.90;;;1.80;;
40501;SDS011;29631;49.168;9.848;2022-07-06T02:26:26;2.00;;;1.90;;
40501;SDS011;29631;49.168;9.848;2022-07-06T02:28:51;2.20;;;2.00;;
40501;SDS011;29631;49.168;9.848;2022-07-06T02:31:17;1.88;;;1.80;;
40501;SDS011;29631;49.168;9.848;2022-07-06T02:33:43;1.73;;;1.73;;
40501;SDS011;29631;49.168;9.848;2022-07-06T02:36:08;1.65;;;1.55;;
40501;SDS011;29631;49.168;9.848;2022-07-06T02:38:34;1.67;;;1.67;;
40501;SDS011;29631;49.168;9.848;2022-07-06T02:41:00;1.58;;;1.58;;
40501;SDS011;29631;49.168;9.848;2022-07-06T02:43:26;2.15;;;2.05;;
40501;SDS011;29631;49.168;9.848;2022-07-06T02:45:51;2.00;;;1.90;;
40501;SDS011;29631;49.168;9.848;2022-07-06T02:48:17;2.63;;;1.85;;
40501;SDS011;29631;49.168;9.848;2022-07-06T02:50:46;1.83;;;1.83;;
40501;SDS011;29631;49.168;9.848;2022-07-06T02:53:12;1.70;;;1.60;;
40501;SDS011;29631;49.168;9.848;2022-07-06T02:55:38;2.45;;;1.80;;
40501;SDS011;29631;49.168;9.848;2022-07-06T02:58:03;1.65;;;1.52;;
40501;SDS011;29631;49.168;9.848;2022-07-06T03:00:29;1.83;;;1.60;;
40501;SDS011;29631;49.168;9.848;2022-07-06T03:02:55;2.75;;;1.90;;
40501;SDS011;29631;49.168;9.848;2022-07-06T03:05:21;2.03;;;1.92;;
40501;SDS011;29631;49.168;9.848;2022-07-06T03:07:47;2.08;;;1.98;;
40501;SDS011;29631;49.168;9.848;2022-07-06T03:10:12;1.65;;;1.58;;
40501;SDS011;29631;49.168;9.848;2022-07-06T03:12:38;1.67;;;1.65;;
40501;SDS011;29631;49.168;9.848;2022-07-06T03:15:04;1.85;;;1.73;;
40501;SDS011;29631;49.168;9.848;2022-07-06T03:17:31;1.55;;;1.55;;
40501;SDS011;29631;49.168;9.848;2022-07-06T03:19:56;1.60;;;1.60;;
40501;SDS011;29631;49.168;9.848;2022-07-06T03:22:22;2.65;;;1.83;;
40501;SDS011;29631;49.168;9.848;2022-07-06T03:24:48;1.92;;;1.90;;
40501;SDS011;29631;49.168;9.848;2022-07-06T03:27:14;1.77;;;1.67;;
40501;SDS011;29631;49.168;9.848;2022-07-06T03:29:40;2.03;;;1.92;;
40501;SDS011;29631;49.168;9.848;2022-07-06T03:32:06;2.00;;;1.73;;
40501;SDS011;29631;49.168;9.848;2022-07-06T03:34:32;2.17;;;2.08;;
40501;SDS011;29631;49.168;9.848;2022-07-06T03:36:57;1.73;;;1.63;;
40501;SDS011;29631;49.168;9.848;2022-07-06T03:39:23;1.80;;;1.80;;
40501;SDS011;29631;49.168;9.848;2022-07-06T03:41:49;1.75;;;1.65;;
40501;SDS011;29631;49.168;9.848;2022-07-06T03:44:14;1.58;;;1.58;;
40501;SDS011;29631;49.168;9.848;2022-07-06T03:46:40;2.05;;;1.95;;
40501;SDS011;29631;49.168;9.848;2022-07-06T03:49:06;2.20;;;2.10;;
40501;SDS011;29631;49.168;9.848;2022-07-06T03:51:32;2.00;;;1.90;;
40501;SDS011;29631;49.168;9.848;2022-07-06T03:53:58;2.05;;;1.95;;
40501;SDS011;29631;49.168;9.848;2022-07-06T03:56:23;1.92;;;1.90;;
40501;SDS011;29631;49.168;9.848;2022-07-06T03:58:59;2.08;;;1.98;;
40501;SDS011;29631;49.168;9.848;2022-07-06T04:01:26;2.00;;;1.90;;
40501;SDS011;29631;49.168;9.848;2022-07-06T04:03:52;1.83;;;1.73;;
40501;SDS011;29631;49.168;9.848;2022-07-06T04:06:18;1.95;;;1.85;;
40501;SDS011;29631;49.168;9.848;2022-07-06T04:08:44;1.63;;;1.52;;
40501;SDS011;29631;49.168;9.848;2022-07-06T04:11:10;1.75;;;1.65;;
40501;SDS011;29631;49.168;9.848;2022-07-06T04:13:36;2.10;;;1.83;;
40501;SDS011;29631;49.168;9.848;2022-07-06T04:16:03;1.80;;;1.65;;
40501;SDS011;29631;49.168;9.848;2022-07-06T04:18:31;2.10;;;2.00;;
40501;SDS011;29631;49.168;9.848;2022-07-06T04:20:56;3.45;;;2.03;;
40501;SDS011;29631;49.168;9.848;2022-07-06T04:23:23;3.53;;;1.90;;
40501;SDS011;29631;49.168;9.848;2022-07-06T04:25:49;1.80;;;1.70;;
40501;SDS011;29631;49.168;9.848;2022-07-06T04:28:14;1.98;;;1.88;;
40501;SDS011;29631;49.168;9.848;2022-07-06T04:30:40;1.90;;;1.80;;
40501;SDS011;29631;49.168;9.848;2022-07-06T04:33:06;1.50;;;1.40;;
40501;SDS011;29631;49.168;9.848;2022-07-06T04:35:32;2.25;;;2.05;;
40501;SDS011;29631;49.168;9.848;2022-07-06T04:37:58;1.88;;;1.80;;
40501;SDS011;29631;49.168;9.848;2022-07-06T04:40:23;1.83;;;1.73;;
40501;SDS011;29631;49.168;9.848;2022-07-06T04:42:49;1.90;;;1.90;;
40501;SDS011;29631;49.168;9.848;2022-07-06T04:45:15;2.15;;;2.05;;
40501;SDS011;29631;49.168;9.848;2022-07-06T04:47:41;2.40;;;1.90;;
40501;SDS011;29631;49.168;9.848;2022-07-06T04:50:09;1.90;;;1.80;;
40501;SDS011;29631;49.168;9.848;2022-07-06T04:52:34;2.17;;;1.98;;
40501;SDS011;29631;49.168;9.848;2022-07-06T04:55:00;1.90;;;1.80;;
40501;SDS011;29631;49.168;9.848;2022-07-06T04:57:26;1.90;;;1.80;;
40501;SDS011;29631;49.168;9.848;2022-07-06T04:59:54;2.20;;;2.10;;
40501;SDS011;29631;49.168;9.848;2022-07-06T05:02:20;2.10;;;1.90;;
40501;SDS011;29631;49.168;9.848;2022-07-06T05:04:46;2.35;;;2.03;;
40501;SDS011;29631;49.168;9.848;2022-07-06T05:07:11;2.08;;;1.98;;
40501;SDS011;29631;49.168;9.848;2022-07-06T05:09:37;2.13;;;1.90;;
40501;SDS011;29631;49.168;9.848;2022-07-06T05:12:03;1.92;;;1.80;;
40501;SDS011;29631;49.168;9.848;2022-07-06T05:14:29;3.47;;;1.85;;
40501;SDS011;29631;49.168;9.848;2022-07-06T05:16:55;2.10;;;1.98;;
40501;SDS011;29631;49.168;9.848;2022-07-06T05:19:20;1.90;;;1.80;;
40501;SDS011;29631;49.168;9.848;2022-07-06T05:21:46;2.80;;;2.00;;
40501;SDS011;29631;49.168;9.848;2022-07-06T05:24:12;2.17;;;2.08;;
40501;SDS011;29631;49.168;9.848;2022-07-06T05:26:37;2.50;;;2.17;;
40501;SDS011;29631;49.168;9.848;2022-07-06T05:29:03;2.10;;;1.90;;
40501;SDS011;29631;49.168;9.848;2022-07-06T05:31:29;1.95;;;1.85;;
40501;SDS011;29631;49.168;9.848;2022-07-06T05:33:54;1.90;;;1.80;;
40501;SDS011;29631;49.168;9.848;2022-07-06T05:36:20;2.00;;;1.90;;
40501;SDS011;29631;49.168;9.848;2022-07-06T05:38:46;1.73;;;1.73;;
40501;SDS011;29631;49.168;9.848;2022-07-06T05:41:12;1.90;;;1.80;;
40501;SDS011;29631;49.168;9.848;2022-07-06T05:43:37;1.90;;;1.80;;
40501;SDS011;29631;49.168;9.848;2022-07-06T05:46:03;2.03;;;1.92;;
40501;SDS011;29631;49.168;9.848;2022-07-06T05:48:29;1.60;;;1.50;;
40501;SDS011;29631;49.168;9.848;2022-07-06T05:51:14;1.80;;;1.70;;
40501;SDS011;29631;49.168;9.848;2022-07-06T05:53:40;1.73;;;1.67;;
40501;SDS011;29631;49.168;9.848;2022-07-06T05:56:05;1.85;;;1.75;;
40501;SDS011;29631;49.168;9.848;2022-07-06T05:58:31;1.65;;;1.55;;
40501;SDS011;29631;49.168;9.848;2022-07-06T06:00:57;3.75;;;2.13;;
40501;SDS011;29631;49.168;9.848;2022-07-06T06:03:22;1.70;;;1.60;;
40501;SDS011;29631;49.168;9.848;2022-07-06T06:05:48;2.17;;;1.90;;
40501;SDS011;29631;49.168;9.848;2022-07-06T06:08:15;2.85;;;1.73;;
40501;SDS011;29631;49.168;9.848;2022-07-06T06:10:40;1.83;;;1.73;;
40501;SDS011;29631;49.168;9.848;2022-07-06T06:13:06;1.55;;;1.55;;
40501;SDS011;29631;49.168;9.848;2022-07-06T06:15:34;5.22;;;1.98;;
40501;SDS011;29631;49.168;9.848;2022-07-06T06:18:00;2.75;;;1.40;;
40501;SDS011;29631;49.168;9.848;2022-07-06T06:20:26;1.75;;;1.70;;
40501;SDS011;29631;49.168;9.848;2022-07-06T06:22:54;1.88;;;1.65;;
40501;SDS011;29631;49.168;9.848;2022-07-06T06:25:32;2.30;;;1.83;;
40501;SDS011;29631;49.168;9.848;2022-07-06T06:28:03;1.50;;;1.48;;
40501;SDS011;29631;49.168;9.848;2022-07-06T06:30:31;1.65;;;1.60;;
40501;SDS011;29631;49.168;9.848;2022-07-06T06:33:30;1.65;;;1.58;;
40501;SDS011;29631;49.168;9.848;2022-07-06T06:35:50;1.60;;;1.60;;
40501;SDS011;29631;49.168;9.848;2022-07-06T06:38:18;2.60;;;1.52;;
40501;SDS011;29631;49.168;9.848;2022-07-06T06:40:47;3.60;;;1.52;;
40501;SDS011;29631;49.168;9.848;2022-07-06T06:43:13;2.47;;;1.77;;
40501;SDS011;29631;49.168;9.848;2022-07-06T06:45:38;2.28;;;1.60;;
40501;SDS011;29631;49.168;9.848;2022-07-06T06:48:05;1.65;;;1.55;;
40501;SDS011;29631;49.168;9.848;2022-07-06T06:50:31;7.18;;;1.80;;
40501;SDS011;29631;49.168;9.848;2022-07-06T06:52:57;2.00;;;1.50;;
40501;SDS011;29631;49.168;9.848;2022-07-06T06:55:22;1.50;;;1.40;;
40501;SDS011;29631;49.168;9.848;2022-07-06T06:57:48;1.90;;;1.27;;
40501;SDS011;29631;49.168;9.848;2022-07-06T07:00:14;1.73;;;1.63;;
40501;SDS011;29631;49.168;9.848;2022-07-06T07:02:40;3.33;;;1.65;;
40501;SDS011;29631;49.168;9.848;2022-07-06T07:05:06;2.03;;;1.40;;
40501;SDS011;29631;49.168;9.848;2022-07-06T07:07:32;1.52;;;1.42;;
40501;SDS011;29631;49.168;9.848;2022-07-06T07:09:59;1.38;;;1.38;;
40501;SDS011;29631;49.168;9.848;2022-07-06T07:12:25;1.73;;;1.60;;
40501;SDS011;29631;49.168;9.848;2022-07-06T07:14:51;1.50;;;1.40;;
40501;SDS011;29631;49.168;9.848;2022-07-06T07:17:17;2.10;;;1.30;;
40501;SDS011;29631;49.168;9.848;2022-07-06T07:19:43;1.45;;;1.30;;
40501;SDS011;29631;49.168;9.848;2022-07-06T07:22:08;1.38;;;1.30;;
40501;SDS011;29631;49.168;9.848;2022-07-06T07:24:34;1.52;;;1.50;;
40501;SDS011;29631;49.168;9.848;2022-07-06T07:27:00;1.90;;;1.25;;
40501;SDS011;29631;49.168;9.848;2022-07-06T07:29:26;1.65;;;1.55;;
40501;SDS011;29631;49.168;9.848;2022-07-06T07:31:52;3.78;;;1.45;;
40501;SDS011;29631;49.168;9.848;2022-07-06T07:34:18;1.88;;;1.60;;
40501;SDS011;29631;49.168;9.848;2022-07-06T07:36:43;2.78;;;1.50;;
40501;SDS011;29631;49.168;9.848;2022-07-06T07:39:09;1.40;;;1.38;;
40501;SDS011;29631;49.168;9.848;2022-07-06T07:41:35;1.90;;;1.52;;
40501;SDS011;29631;49.168;9.848;2022-07-06T07:44:00;5.65;;;2.03;;
40501;SDS011;29631;49.168;9.848;2022-07-06T07:46:26;1.90;;;1.73;;
40501;SDS011;29631;49.168;9.848;2022-07-06T07:48:52;1.38;;;1.30;;
40501;SDS011;29631;49.168;9.848;2022-07-06T07:51:18;1.80;;;1.42;;
40501;SDS011;29631;49.168;9.848;2022-07-06T07:53:44;1.40;;;1.30;;
40501;SDS011;29631;49.168;9.848;2022-07-06T07:56:10;1.50;;;1.40;;
40501;SDS011;29631;49.168;9.848;2022-07-06T07:58:36;2.03;;;1.70;;
40501;SDS011;29631;49.168;9.848;2022-07-06T08:01:02;1.80;;;1.58;;
40501;SDS011;29631;49.168;9.848;2022-07-06T08:03:29;2.28;;;2.00;;
40501;SDS011;29631;49.168;9.848;2022-07-06T08:05:56;1.55;;;1.55;;
40501;SDS011;29631;49.168;9.848;2022-07-06T08:08:22;2.58;;;1.70;;
40501;SDS011;29631;49.168;9.848;2022-07-06T08:10:48;1.73;;;1.40;;
40501;SDS011;29631;49.168;9.848;2022-07-06T08:13:14;1.85;;;1.45;;
40501;SDS011;29631;49.168;9.848;2022-07-06T08:15:40;1.50;;;1.50;;
40501;SDS011;29631;49.168;9.848;2022-07-06T08:18:07;1.77;;;1.63;;
40501;SDS011;29631;49.168;9.848;2022-07-06T08:20:34;1.73;;;1.60;;
40501;SDS011;29631;49.168;9.848;2022-07-06T08:23:00;1.92;;;1.60;;
40501;SDS011;29631;49.168;9.848;2022-07-06T08:25:26;1.90;;;1.80;;
40501;SDS011;29631;49.168;9.848;2022-07-06T08:27:52;1.70;;;1.60;;
40501;SDS011;29631;49.168;9.848;2022-07-06T08:30:17;1.60;;;1.50;;
40501;SDS011;29631;49.168;9.848;2022-07-06T08:32:43;1.77;;;1.67;;
40501;SDS011;29631;49.168;9.848;2022-07-06T08:35:10;2.75;;;1.38;;
40501;SDS011;29631;49.168;9.848;2022-07-06T08:37:36;1.60;;;1.50;;
40501;SDS011;29631;49.168;9.848;2022-07-06T08:40:02;1.70;;;1.60;;
40501;SDS011;29631;49.168;9.848;2022-07-06T08:42:30;1.70;;;1.60;;
40501;SDS011;29631;49.168;9.848;2022-07-06T08:44:59;1.60;;;1.50;;
40501;SDS011;29631;49.168;9.848;2022-07-06T08:47:27;1.70;;;1.60;;
40501;SDS011;29631;49.168;9.848;2022-07-06T08:49:53;1.45;;;1.35;;
40501;SDS011;29631;49.168;9.848;2022-07-06T08:52:19;1.60;;;1.50;;
40501;SDS011;29631;49.168;9.848;2022-07-06T08:54:47;1.52;;;1.42;;
40501;SDS011;29631;49.168;9.848;2022-07-06T08:57:13;2.67;;;1.52;;
40501;SDS011;29631;49.168;9.848;2022-07-06T08:59:40;1.83;;;1.73;;
40501;SDS011;29631;49.168;9.848;2022-07-06T09:02:06;1.80;;;1.70;;
40501;SDS011;29631;49.168;9.848;2022-07-06T09:04:34;3.05;;;1.63;;
40501;SDS011;29631;49.168;9.848;2022-07-06T09:07:02;2.85;;;1.60;;
40501;SDS011;29631;49.168;9.848;2022-07-06T09:09:28;2.72;;;1.42;;
40501;SDS011;29631;49.168;9.848;2022-07-06T09:11:58;1.65;;;1.55;;
40501;SDS011;29631;49.168;9.848;2022-07-06T09:14:24;3.92;;;1.48;;
40501;SDS011;29631;49.168;9.848;2022-07-06T09:17:01;1.42;;;1.35;;
40501;SDS011;29631;49.168;9.848;2022-07-06T09:19:33;3.22;;;1.45;;
40501;SDS011;29631;49.168;9.848;2022-07-06T09:22:00;1.35;;;1.35;;
40501;SDS011;29631;49.168;9.848;2022-07-06T09:24:26;1.75;;;1.65;;
40501;SDS011;29631;49.168;9.848;2022-07-06T09:26:56;1.95;;;1.50;;
40501;SDS011;29631;49.168;9.848;2022-07-06T09:29:30;1.20;;;1.20;;
40501;SDS011;29631;49.168;9.848;2022-07-06T09:31:57;1.60;;;1.50;;
40501;SDS011;29631;49.168;9.848;2022-07-06T09:34:24;1.30;;;1.30;;
40501;SDS011;29631;49.168;9.848;2022-07-06T09:37:05;2.60;;;1.70;;
40501;SDS011;29631;49.168;9.848;2022-07-06T09:39:31;1.42;;;1.40;;
40501;SDS011;29631;49.168;9.848;2022-07-06T09:41:58;1.80;;;1.70;;
40501;SDS011;29631;49.168;9.848;2022-07-06T09:44:33;3.20;;;1.50;;
40501;SDS011;29631;49.168;9.848;2022-07-06T09:47:05;1.65;;;1.55;;
40501;SDS011;29631;49.168;9.848;2022-07-06T09:49:33;1.48;;;1.38;;
40501;SDS011;29631;49.168;9.848;2022-07-06T09:52:04;1.67;;;1.48;;
40501;SDS011;29631;49.168;9.848;2022-07-06T09:54:33;1.48;;;1.33;;
40501;SDS011;29631;49.168;9.848;2022-07-06T09:57:00;1.52;;;1.42;;
40501;SDS011;29631;49.168;9.848;2022-07-06T09:59:27;1.40;;;1.30;;
40501;SDS011;29631;49.168;9.848;2022-07-06T10:01:55;1.40;;;1.30;;
40501;SDS011;29631;49.168;9.848;2022-07-06T10:04:30;1.58;;;1.40;;
40501;SDS011;29631;49.168;9.848;2022-07-06T10:06:57;1.50;;;1.40;;
40501;SDS011;29631;49.168;9.848;2022-07-06T10:09:24;2.80;;;1.38;;
40501;SDS011;29631;49.168;9.848;2022-07-06T10:11:53;4.43;;;1.50;;
40501;SDS011;29631;49.168;9.848;2022-07-06T10:14:25;2.95;;;1.75;;
40501;SDS011;29631;49.168;9.848;2022-07-06T10:16:55;1.58;;;1.50;;
40501;SDS011;29631;49.168;9.848;2022-07-06T10:19:26;1.88;;;1.40;;
40501;SDS011;29631;49.168;9.848;2022-07-06T10:21:54;2.85;;;1.60;;
40501;SDS011;29631;49.168;9.848;2022-07-06T10:24:25;1.55;;;1.55;;
40501;SDS011;29631;49.168;9.848;2022-07-06T10:26:53;3.30;;;1.60;;
40501;SDS011;29631;49.168;9.848;2022-07-06T10:29:20;1.63;;;1.52;;
40501;SDS011;29631;49.168;9.848;2022-07-06T10:31:46;1.50;;;1.40;;
40501;SDS011;29631;49.168;9.848;2022-07-06T10:34:14;2.00;;;1.38;;
40501;SDS011;29631;49.168;9.848;2022-07-06T10:36:43;2.55;;;1.45;;
40501;SDS011;29631;49.168;9.848;2022-07-06T10:39:13;1.88;;;1.70;;
40501;SDS011;29631;49.168;9.848;2022-07-06T10:41:57;1.52;;;1.42;;
40501;SDS011;29631;49.168;9.848;2022-07-06T10:44:24;2.35;;;1.33;;
40501;SDS011;29631;49.168;9.848;2022-07-06T10:46:56;1.70;;;1.60;;
40501;SDS011;29631;49.168;9.848;2022-07-06T10:49:23;2.25;;;1.48;;
40501;SDS011;29631;49.168;9.848;2022-07-06T10:51:51;1.52;;;1.42;;
40501;SDS011;29631;49.168;9.848;2022-07-06T10:54:18;1.50;;;1.40;;
40501;SDS011;29631;49.168;9.848;2022-07-06T10:56:49;1.63;;;1.52;;
40501;SDS011;29631;49.168;9.848;2022-07-06T10:59:16;1.70;;;1.60;;
40501;SDS011;29631;49.168;9.848;2022-07-06T11:04:45;4.95;;;1.73;;
40501;SDS011;29631;49.168;9.848;2022-07-06T11:07:17;4.72;;;1.40;;
40501;SDS011;29631;49.168;9.848;2022-07-06T11:09:57;1.30;;;1.30;;
40501;SDS011;29631;49.168;9.848;2022-07-06T11:12:25;2.55;;;1.30;;
40501;SDS011;29631;49.168;9.848;2022-07-06T11:14:51;1.65;;;1.38;;
40501;SDS011;29631;49.168;9.848;2022-07-06T11:17:18;2.50;;;1.30;;
40501;SDS011;29631;49.168;9.848;2022-07-06T11:19:55;1.65;;;1.30;;
40501;SDS011;29631;49.168;9.848;2022-07-06T11:22:23;3.17;;;1.60;;
40501;SDS011;29631;49.168;9.848;2022-07-06T11:24:51;1.65;;;1.20;;
40501;SDS011;29631;49.168;9.848;2022-07-06T11:27:18;1.75;;;1.67;;
40501;SDS011;29631;49.168;9.848;2022-07-06T11:29:47;1.73;;;1.63;;
40501;SDS011;29631;49.168;9.848;2022-07-06T11:32:12;2.10;;;1.50;;
40501;SDS011;29631;49.168;9.848;2022-07-06T11:34:42;4.07;;;1.70;;
40501;SDS011;29631;49.168;9.848;2022-07-06T11:37:13;2.30;;;1.83;;
40501;SDS011;29631;49.168;9.848;2022-07-06T11:39:43;3.13;;;1.42;;
40501;SDS011;29631;49.168;9.848;2022-07-06T11:42:12;1.60;;;1.50;;
40501;SDS011;29631;49.168;9.848;2022-07-06T11:44:40;1.30;;;1.30;;
40501;SDS011;29631;49.168;9.848;2022-07-06T11:47:08;2.42;;;1.58;;
40501;SDS011;29631;49.168;9.848;2022-07-06T11:49:36;2.15;;;1.30;;
40501;SDS011;29631;49.168;9.848;2022-07-06T11:52:10;1.58;;;1.08;;
40501;SDS011;29631;49.168;9.848;2022-07-06T11:54:38;1.50;;;1.50;;
40501;SDS011;29631;49.168;9.848;2022-07-06T11:57:06;1.50;;;1.40;;
40501;SDS011;29631;49.168;9.848;2022-07-06T11:59:35;1.70;;;1.60;;
40501;SDS011;29631;49.168;9.848;2022-07-06T12:02:09;1.55;;;1.48;;
40501;SDS011;29631;49.168;9.848;2022-07-06T12:04:42;1.60;;;1.50;;
40501;SDS011;29631;49.168;9.848;2022-07-06T12:07:11;1.60;;;1.50;;
40501;SDS011;29631;49.168;9.848;2022-07-06T12:09:43;1.20;;;1.20;;
40501;SDS011;29631;49.168;9.848;2022-07-06T12:12:11;1.52;;;1.40;;
40501;SDS011;29631;49.168;9.848;2022-07-06T12:14:39;1.25;;;1.15;;
40501;SDS011;29631;49.168;9.848;2022-07-06T12:17:07;1.48;;;1.15;;
40501;SDS011;29631;49.168;9.848;2022-07-06T12:19:38;1.63;;;1.15;;
40501;SDS011;29631;49.168;9.848;2022-07-06T12:22:05;1.27;;;1.17;;
40501;SDS011;29631;49.168;9.848;2022-07-06T12:24:33;2.30;;;1.60;;
40501;SDS011;29631;49.168;9.848;2022-07-06T12:27:13;1.55;;;1.40;;
40501;SDS011;29631;49.168;9.848;2022-07-06T12:29:43;2.63;;;1.35;;
40501;SDS011;29631;49.168;9.848;2022-07-06T12:32:17;3.78;;;1.30;;
40501;SDS011;29631;49.168;9.848;2022-07-06T12:34:47;1.20;;;1.10;;
40501;SDS011;29631;49.168;9.848;2022-07-06T12:37:26;1.10;;;1.10;;
40501;SDS011;29631;49.168;9.848;2022-07-06T12:39:52;3.75;;;1.00;;
40501;SDS011;29631;49.168;9.848;2022-07-06T12:42:18;1.33;;;1.23;;
40501;SDS011;29631;49.168;9.848;2022-07-06T12:44:48;2.10;;;1.20;;
40501;SDS011;29631;49.168;9.848;2022-07-06T12:47:17;3.92;;;1.20;;
40501;SDS011;29631;49.168;9.848;2022-07-06T12:50:03;2.65;;;1.38;;
40501;SDS011;29631;49.168;9.848;2022-07-06T12:52:32;2.17;;;1.20;;
40501;SDS011;29631;49.168;9.848;2022-07-06T12:54:59;1.40;;;1.20;;
40501;SDS011;29631;49.168;9.848;2022-07-06T12:57:26;1.10;;;1.10;;
40501;SDS011;29631;49.168;9.848;2022-07-06T13:02:20;1.40;;;1.27;;
40501;SDS011;29631;49.168;9.848;2022-07-06T13:05:12;2.20;;;1.38;;
40501;SDS011;29631;49.168;9.848;2022-07-06T13:07:48;3.22;;;1.30;;
40501;SDS011;29631;49.168;9.848;2022-07-06T13:10:15;1.50;;;1.40;;
40501;SDS011;29631;49.168;9.848;2022-07-06T13:12:41;1.35;;;1.17;;
40501;SDS011;29631;49.168;9.848;2022-07-06T13:15:08;1.20;;;1.10;;
40501;SDS011;29631;49.168;9.848;2022-07-06T13:17:35;1.27;;;1.20;;
40501;SDS011;29631;49.168;9.848;2022-07-06T13:20:02;1.52;;;0.90;;
40501;SDS011;29631;49.168;9.848;2022-07-06T13:22:33;1.25;;;1.13;;
40501;SDS011;29631;49.168;9.848;2022-07-06T13:24:59;1.25;;;1.15;;
40501;SDS011;29631;49.168;9.848;2022-07-06T13:27:25;2.63;;;1.25;;
40501;SDS011;29631;49.168;9.848;2022-07-06T13:29:50;1.15;;;1.15;;
40501;SDS011;29631;49.168;9.848;2022-07-06T13:32:16;1.30;;;1.30;;
40501;SDS011;29631;49.168;9.848;2022-07-06T13:34:42;1.42;;;1.33;;
40501;SDS011;29631;49.168;9.848;2022-07-06T13:37:08;1.35;;;1.17;;
40501;SDS011;29631;49.168;9.848;2022-07-06T13:39:33;2.38;;;1.40;;
40501;SDS011;29631;49.168;9.848;2022-07-06T13:41:59;1.35;;;1.10;;
40501;SDS011;29631;49.168;9.848;2022-07-06T13:44:25;1.40;;;1.30;;
40501;SDS011;29631;49.168;9.848;2022-07-06T13:46:51;3.30;;;1.30;;
40501;SDS011;29631;49.168;9.848;2022-07-06T13:49:16;1.67;;;1.27;;
40501;SDS011;29631;49.168;9.848;2022-07-06T13:51:42;1.38;;;1.30;;
40501;SDS011;29631;49.168;9.848;2022-07-06T13:54:09;1.63;;;1.33;;
40501;SDS011;29631;49.168;9.848;2022-07-06T13:56:36;0.95;;;0.95;;
40501;SDS011;29631;49.168;9.848;2022-07-06T13:59:04;1.70;;;1.25;;
40501;SDS011;29631;49.168;9.848;2022-07-06T14:01:30;1.35;;;1.35;;
40501;SDS011;29631;49.168;9.848;2022-07-06T14:03:56;1.33;;;1.10;;
40501;SDS011;29631;49.168;9.848;2022-07-06T14:06:22;2.45;;;1.40;;
40501;SDS011;29631;49.168;9.848;2022-07-06T14:08:48;1.75;;;1.40;;
40501;SDS011;29631;49.168;9.848;2022-07-06T14:11:14;1.33;;;1.17;;
40501;SDS011;29631;49.168;9.848;2022-07-06T14:13:39;1.40;;;1.35;;
40501;SDS011;29631;49.168;9.848;2022-07-06T14:16:05;1.38;;;1.25;;
40501;SDS011;29631;49.168;9.848;2022-07-06T14:18:32;1.45;;;1.30;;
40501;SDS011;29631;49.168;9.848;2022-07-06T14:20:58;1.50;;;1.27;;
40501;SDS011;29631;49.168;9.848;2022-07-06T14:23:28;1.40;;;1.30;;
40501;SDS011;29631;49.168;9.848;2022-07-06T14:25:54;4.88;;;1.50;;
40501;SDS011;29631;49.168;9.848;2022-07-06T14:28:21;1.35;;;1.25;;
40501;SDS011;29631;49.168;9.848;2022-07-06T14:30:47;1.65;;;1.42;;
40501;SDS011;29631;49.168;9.848;2022-07-06T14:33:13;1.83;;;1.27;;
40501;SDS011;29631;49.168;9.848;2022-07-06T14:38:12;1.88;;;1.08;;
40501;SDS011;29631;49.168;9.848;2022-07-06T14:40:43;1.38;;;1.33;;
40501;SDS011;29631;49.168;9.848;2022-07-06T14:43:10;1.60;;;1.50;;
40501;SDS011;29631;49.168;9.848;2022-07-06T14:45:36;1.20;;;1.10;;
40501;SDS011;29631;49.168;9.848;2022-07-06T14:48:02;1.10;;;1.10;;
40501;SDS011;29631;49.168;9.848;2022-07-06T14:50:28;1.17;;;1.17;;
40501;SDS011;29631;49.168;9.848;2022-07-06T14:52:54;1.20;;;1.05;;
40501;SDS011;29631;49.168;9.848;2022-07-06T14:55:20;1.20;;;1.20;;
40501;SDS011;29631;49.168;9.848;2022-07-06T14:57:46;2.28;;;1.20;;